createdAt,value
2018-07-25T00:00:18.573Z,57.80
2018-07-25T00:03:22.540Z,57.60
2018-07-25T00:06:26.493Z,57.60
2018-07-25T00:09:30.373Z,57.70
2018-07-25T00:12:34.386Z,57.60
2018-07-25T00:15:38.231Z,57.70
2018-07-25T00:18:42.136Z,57.70
2018-07-25T00:21:45.988Z,57.80
2018-07-25T00:24:49.913Z,58.00
2018-07-25T00:27:53.784Z,58.00
2018-07-25T00:30:57.677Z,58.00
2018-07-25T00:34:01.658Z,58.10
2018-07-25T00:37:05.613Z,58.10
2018-07-25T00:40:09.536Z,58.10
2018-07-25T00:43:13.463Z,58.20
2018-07-25T00:46:17.390Z,58.30
2018-07-25T00:49:21.238Z,58.40
2018-07-25T00:52:25.783Z,58.40
2018-07-25T00:55:29.709Z,58.70
2018-07-25T00:58:33.559Z,58.80
2018-07-25T01:01:37.437Z,59.00
2018-07-25T01:04:41.350Z,59.20
2018-07-25T01:07:45.378Z,59.30
2018-07-25T01:10:49.287Z,59.20
2018-07-25T01:13:53.209Z,59.40
2018-07-25T01:16:57.111Z,59.40
2018-07-25T01:20:01.004Z,59.30
2018-07-25T01:23:04.938Z,59.70
2018-07-25T01:26:08.840Z,59.90
2018-07-25T01:29:12.783Z,60.10
2018-07-25T01:32:16.766Z,60.80
2018-07-25T01:35:20.876Z,61.00
2018-07-25T01:38:24.735Z,61.00
2018-07-25T01:41:28.602Z,61.30
2018-07-25T01:44:32.452Z,61.40
2018-07-25T01:47:36.324Z,61.50
2018-07-25T01:50:40.296Z,61.70
2018-07-25T01:53:44.175Z,61.40
2018-07-25T01:56:48.054Z,61.30
2018-07-25T01:59:52.028Z,61.40
2018-07-25T02:02:55.980Z,61.40
2018-07-25T02:05:59.938Z,61.80
2018-07-25T02:09:04.051Z,62.10
2018-07-25T02:12:08.002Z,62.30
2018-07-25T02:15:11.971Z,62.30
2018-07-25T02:18:15.902Z,63.80
2018-07-25T02:21:19.793Z,64.00
2018-07-25T02:24:23.649Z,63.10
2018-07-25T02:27:27.586Z,63.80
2018-07-25T02:30:31.527Z,63.90
2018-07-25T02:33:40.519Z,62.90
2018-07-25T02:36:44.385Z,62.50
2018-07-25T02:39:48.311Z,62.80
2018-07-25T02:42:52.212Z,62.70
2018-07-25T02:45:56.125Z,62.70
2018-07-25T02:49:00.095Z,62.10
2018-07-25T02:52:04.026Z,62.20
2018-07-25T02:55:08.246Z,62.50
2018-07-25T02:58:12.149Z,62.40
2018-07-25T03:01:16.085Z,61.50
2018-07-25T03:04:20.035Z,61.80
2018-07-25T03:07:23.905Z,61.60
2018-07-25T03:10:27.883Z,61.50
2018-07-25T03:13:31.755Z,61.30
2018-07-25T03:16:35.653Z,61.50
2018-07-25T03:19:39.606Z,61.60
2018-07-25T03:22:43.521Z,61.80
2018-07-25T03:25:47.455Z,61.90
2018-07-25T03:28:51.388Z,61.60
2018-07-25T03:31:55.353Z,61.40
2018-07-25T03:34:59.331Z,61.50
2018-07-25T03:38:03.231Z,61.70
2018-07-25T03:41:07.733Z,61.80
2018-07-25T03:44:11.634Z,61.60
2018-07-25T03:47:15.516Z,61.20
2018-07-25T03:50:19.417Z,61.40
2018-07-25T03:53:23.322Z,61.50
2018-07-25T03:56:27.213Z,61.30
2018-07-25T03:59:31.198Z,61.80
2018-07-25T04:02:35.076Z,61.60
2018-07-25T04:05:39.045Z,60.70
2018-07-25T04:08:42.892Z,59.40
2018-07-25T04:11:46.780Z,58.90
2018-07-25T04:14:50.689Z,58.80
2018-07-25T04:17:54.625Z,58.50
2018-07-25T04:20:58.577Z,58.10
2018-07-25T04:24:02.483Z,58.00
2018-07-25T04:27:06.356Z,57.50
2018-07-25T04:30:11.572Z,57.50
2018-07-25T04:33:15.508Z,57.50
2018-07-25T04:36:19.387Z,57.10
2018-07-25T04:39:23.289Z,56.80
2018-07-25T04:42:27.275Z,56.40
2018-07-25T04:45:31.163Z,56.10
2018-07-25T04:48:35.103Z,55.50
2018-07-25T04:51:39.026Z,55.30
2018-07-25T04:54:42.889Z,54.90
2018-07-25T04:57:46.777Z,54.70
2018-07-25T05:00:50.759Z,54.20
2018-07-25T05:03:54.663Z,54.20
2018-07-25T05:06:58.609Z,54.10
2018-07-25T05:10:02.524Z,53.70
2018-07-25T05:13:06.492Z,53.50
2018-07-25T05:16:10.449Z,53.70
2018-07-25T05:19:14.386Z,53.20
2018-07-25T05:22:18.277Z,52.90
2018-07-25T05:25:22.271Z,52.70
2018-07-25T05:28:26.533Z,52.40
2018-07-25T05:31:30.445Z,52.10
2018-07-25T05:34:34.509Z,51.80
2018-07-25T05:37:38.416Z,51.50
2018-07-25T05:40:42.330Z,51.30
2018-07-25T05:43:46.275Z,51.20
2018-07-25T05:46:50.229Z,51.10
2018-07-25T05:49:54.167Z,50.50
2018-07-25T05:52:58.125Z,50.10
2018-07-25T05:56:02.046Z,50.20
2018-07-25T05:59:05.969Z,50.00
2018-07-25T06:02:13.279Z,49.40
2018-07-25T06:05:17.481Z,48.80
2018-07-25T06:08:21.913Z,47.90
2018-07-25T06:11:25.949Z,46.70
2018-07-25T06:14:29.895Z,46.10
2018-07-25T06:17:34.193Z,45.30
2018-07-25T06:20:38.098Z,43.60
2018-07-25T06:23:42.022Z,41.70
2018-07-25T06:26:46.690Z,40.90
2018-07-25T06:29:50.607Z,40.30
2018-07-25T06:32:54.549Z,39.90
2018-07-25T06:35:59.465Z,39.00
2018-07-25T06:39:03.748Z,37.50
2018-07-25T06:42:07.674Z,36.20
2018-07-25T06:45:11.644Z,35.10
2018-07-25T06:48:15.834Z,34.30
2018-07-25T06:51:19.735Z,33.00
2018-07-25T06:54:23.641Z,31.80
2018-07-25T06:57:27.574Z,31.90
2018-07-25T07:00:31.526Z,33.10
2018-07-25T07:03:35.542Z,33.90
2018-07-25T07:06:39.513Z,35.20
2018-07-25T07:09:43.448Z,36.10
2018-07-25T07:12:47.382Z,36.90
2018-07-25T07:15:51.287Z,37.30
2018-07-25T07:18:55.182Z,36.80
2018-07-25T07:21:59.103Z,34.00
2018-07-25T07:25:03.005Z,31.10
2018-07-25T07:28:06.991Z,29.60
2018-07-25T07:31:10.918Z,27.30
2018-07-25T07:34:14.931Z,25.10
2018-07-25T07:37:18.879Z,24.60
2018-07-25T07:40:22.747Z,23.40
2018-07-25T07:43:26.687Z,22.30
2018-07-25T07:46:30.608Z,21.50
2018-07-25T07:49:34.507Z,21.20
2018-07-25T07:52:38.401Z,19.80
2018-07-25T07:55:42.319Z,18.60
2018-07-25T07:58:46.207Z,17.90
2018-07-25T08:01:50.770Z,17.90
2018-07-25T08:04:54.749Z,17.80
2018-07-25T08:07:58.614Z,17.50
2018-07-25T08:11:02.544Z,17.30
2018-07-25T08:14:06.544Z,18.10
2018-07-25T08:17:10.426Z,18.90
2018-07-25T08:20:14.433Z,18.80
2018-07-25T08:23:18.340Z,19.20
2018-07-25T08:26:22.355Z,20.10
2018-07-25T08:29:26.210Z,20.50
2018-07-25T08:32:30.150Z,20.70
2018-07-25T08:35:34.031Z,21.80
2018-07-25T08:38:39.260Z,22.40
2018-07-25T08:41:43.262Z,22.30
2018-07-25T08:44:47.171Z,23.50
2018-07-25T08:47:51.176Z,24.00
2018-07-25T08:50:55.141Z,24.80
2018-07-25T08:53:59.052Z,24.60
2018-07-25T08:57:02.973Z,25.80
2018-07-25T09:00:07.544Z,26.10
2018-07-25T09:03:12.820Z,26.20
2018-07-25T09:06:16.859Z,26.30
2018-07-25T09:09:20.888Z,27.80
2018-07-25T09:12:24.910Z,27.50
2018-07-25T09:15:29.040Z,27.40
2018-07-25T09:18:33.127Z,27.80
2018-07-25T09:21:37.232Z,27.80
2018-07-25T09:24:42.398Z,27.70
2018-07-25T09:27:46.705Z,27.90
2018-07-25T09:30:50.693Z,28.40
2018-07-25T09:33:55.569Z,28.30
2018-07-25T09:36:59.493Z,28.30
2018-07-25T09:40:03.415Z,28.20
2018-07-25T09:43:07.411Z,27.40
2018-07-25T09:46:11.501Z,28.30
2018-07-25T09:49:15.601Z,29.90
2018-07-25T09:52:19.580Z,29.70
2018-07-25T09:55:23.518Z,30.30
2018-07-25T09:58:27.469Z,30.60
2018-07-25T10:01:31.422Z,31.30
2018-07-25T10:04:35.441Z,31.20
2018-07-25T10:07:39.492Z,31.10
2018-07-25T10:10:43.814Z,29.60
2018-07-25T10:13:47.687Z,29.10
2018-07-25T10:16:51.667Z,29.60
2018-07-25T10:19:55.561Z,29.40
2018-07-25T10:22:59.561Z,29.60
2018-07-25T10:26:03.656Z,27.90
2018-07-25T10:29:07.635Z,28.30
2018-07-25T10:32:11.613Z,29.80
2018-07-25T10:35:15.504Z,30.80
2018-07-25T10:38:19.427Z,29.90
2018-07-25T10:41:23.340Z,30.20
2018-07-25T10:44:27.517Z,29.80
2018-07-25T10:50:12.605Z,28.50
2018-07-25T10:53:17.002Z,28.80
2018-07-25T10:56:21.397Z,28.40
2018-07-25T10:59:25.839Z,28.50
2018-07-25T11:02:30.240Z,28.90
2018-07-25T11:05:34.629Z,29.70
2018-07-25T11:08:39.033Z,30.10
2018-07-25T11:11:43.131Z,30.50
2018-07-25T11:14:47.235Z,30.80
2018-07-25T11:17:51.525Z,31.50
2018-07-25T11:20:56.019Z,31.00
2018-07-25T11:24:00.427Z,30.00
2018-07-25T11:27:04.827Z,29.40
2018-07-25T11:30:09.347Z,29.80
2018-07-25T11:33:13.485Z,29.60
2018-07-25T11:36:17.927Z,30.50
2018-07-25T11:39:22.206Z,29.30
2018-07-25T11:42:26.838Z,29.60
2018-07-25T11:45:31.144Z,29.40
2018-07-25T11:48:35.226Z,28.70
2018-07-25T11:51:39.469Z,29.10
2018-07-25T11:54:43.625Z,28.60
2018-07-25T11:57:47.880Z,28.50
2018-07-25T12:00:52.308Z,28.60
2018-07-25T12:03:56.425Z,29.00
2018-07-25T12:10:05.213Z,30.00
2018-07-25T12:13:09.636Z,30.50
2018-07-25T12:16:13.960Z,29.00
2018-07-25T12:19:18.338Z,29.00
2018-07-25T12:22:22.361Z,29.40
2018-07-25T12:25:26.343Z,28.90
2018-07-25T12:28:30.345Z,28.90
2018-07-25T12:31:34.704Z,30.70
2018-07-25T12:34:38.942Z,31.30
2018-07-25T12:37:43.270Z,32.10
2018-07-25T12:40:47.566Z,31.40
2018-07-25T12:43:52.767Z,32.20
2018-07-25T12:46:57.065Z,32.90
2018-07-25T12:50:01.376Z,33.60
2018-07-25T12:53:05.791Z,34.00
2018-07-25T12:56:10.162Z,34.30
2018-07-25T12:59:14.898Z,34.10
2018-07-25T13:02:19.392Z,34.10
2018-07-25T13:05:23.742Z,34.30
2018-07-25T13:08:28.221Z,33.50
2018-07-25T13:11:32.472Z,34.30
2018-07-25T13:14:36.640Z,34.90
2018-07-25T13:17:40.899Z,35.20
2018-07-25T13:20:45.286Z,34.30
2018-07-25T13:23:49.677Z,34.50
2018-07-25T13:26:54.215Z,33.90
2018-07-25T13:29:58.684Z,34.50
2018-07-25T13:33:02.891Z,35.00
2018-07-25T13:36:07.238Z,36.00
2018-07-25T13:39:11.574Z,34.80
2018-07-25T13:42:15.937Z,35.20
2018-07-25T13:45:20.330Z,36.40
2018-07-25T13:48:24.695Z,36.50
2018-07-25T13:51:29.145Z,36.50
2018-07-25T13:54:33.381Z,36.80
2018-07-25T13:57:37.718Z,37.00
2018-07-25T14:00:42.323Z,37.20
2018-07-25T14:03:46.889Z,37.30
2018-07-25T14:06:51.255Z,38.30
2018-07-25T14:09:55.613Z,41.10
2018-07-25T14:13:02.055Z,42.10
2018-07-25T14:16:06.614Z,42.70
2018-07-25T14:19:10.922Z,43.00
2018-07-25T14:22:15.300Z,44.10
2018-07-25T14:25:19.766Z,44.40
2018-07-25T14:28:23.851Z,44.70
2018-07-25T14:31:28.426Z,44.70
2018-07-25T14:34:32.606Z,45.20
2018-07-25T14:37:36.967Z,45.50
2018-07-25T14:40:41.290Z,46.00
2018-07-25T14:43:45.737Z,46.50
2018-07-25T14:46:50.193Z,46.90
2018-07-25T14:49:56.250Z,46.60
2018-07-25T14:53:01.205Z,46.70
2018-07-25T14:56:06.636Z,46.40
2018-07-25T14:59:11.054Z,46.00
2018-07-25T15:02:15.643Z,45.70
2018-07-25T15:05:19.711Z,45.40
2018-07-25T15:08:24.070Z,45.10
2018-07-25T15:11:28.423Z,44.70
2018-07-25T15:17:36.367Z,44.90
2018-07-25T15:20:40.751Z,44.50
2018-07-25T15:23:56.437Z,44.50
2018-07-25T15:27:00.686Z,45.20
2018-07-25T15:30:05.553Z,45.40
2018-07-25T15:33:09.893Z,45.40
2018-07-25T15:36:39.340Z,45.40
2018-07-25T15:39:43.775Z,44.90
2018-07-25T15:42:48.199Z,44.50
2018-07-25T15:45:52.734Z,44.80
2018-07-25T15:48:57.819Z,44.80
2018-07-25T15:52:02.462Z,44.30
2018-07-25T15:55:06.761Z,44.20
2018-07-25T15:58:11.151Z,44.00
2018-07-25T16:01:15.562Z,43.50
2018-07-25T16:04:19.853Z,43.90
2018-07-25T16:07:24.182Z,44.00
2018-07-25T16:10:28.772Z,44.70
2018-07-25T16:13:33.260Z,45.10
2018-07-25T16:16:37.628Z,45.20
2018-07-25T16:19:42.121Z,45.10
2018-07-25T16:22:46.486Z,44.50
2018-07-25T16:25:50.768Z,44.70
2018-07-25T16:28:55.342Z,44.20
2018-07-25T16:31:59.818Z,44.50
2018-07-25T16:35:04.747Z,44.10
2018-07-25T16:38:09.113Z,43.90
2018-07-25T16:41:13.571Z,43.30
2018-07-25T16:44:17.908Z,43.70
2018-07-25T16:47:22.347Z,43.80
2018-07-25T16:53:30.491Z,44.60
2018-07-25T16:56:34.896Z,44.60
2018-07-25T16:59:39.305Z,44.90
2018-07-25T17:02:43.694Z,44.90
2018-07-25T17:05:48.062Z,45.00
2018-07-25T17:08:52.303Z,44.80
2018-07-25T17:11:56.679Z,44.30
2018-07-25T17:15:00.975Z,43.40
2018-07-25T17:18:05.282Z,43.40
2018-07-25T17:21:09.703Z,43.70
2018-07-25T17:24:14.118Z,43.60
2018-07-25T17:27:18.637Z,43.70
2018-07-25T17:30:23.021Z,44.10
2018-07-25T17:33:27.525Z,44.30
2018-07-25T17:36:32.410Z,44.50
2018-07-25T17:39:36.666Z,44.70
2018-07-25T17:42:40.804Z,45.00
2018-07-25T17:45:45.069Z,44.90
2018-07-25T17:48:49.291Z,44.20
2018-07-25T17:51:53.733Z,44.40
2018-07-25T17:54:58.164Z,44.20
2018-07-25T17:58:02.711Z,44.40
2018-07-25T18:01:07.096Z,44.70
2018-07-25T18:07:15.680Z,45.20
2018-07-25T18:10:20.153Z,45.40
2018-07-25T18:13:29.673Z,45.30
2018-07-25T18:16:34.038Z,45.50
2018-07-25T18:19:38.320Z,45.50
2018-07-25T18:22:42.722Z,45.80
2018-07-25T18:25:46.966Z,46.20
2018-07-25T18:28:51.308Z,47.20
2018-07-25T18:31:55.663Z,48.00
2018-07-25T18:35:00.191Z,48.20
2018-07-25T18:38:04.894Z,48.20
2018-07-25T18:41:09.263Z,48.40
2018-07-25T18:44:13.534Z,48.70
2018-07-25T18:47:17.734Z,48.80
2018-07-25T18:50:21.879Z,49.00
2018-07-25T18:53:26.029Z,49.70
2018-07-25T18:56:30.770Z,50.90
2018-07-25T18:59:35.373Z,51.70
2018-07-25T19:02:39.675Z,51.80
2018-07-25T19:05:44.186Z,52.50
2018-07-25T19:08:48.763Z,52.90
2018-07-25T19:11:53.316Z,53.20
2018-07-25T19:15:02.801Z,53.20
2018-07-25T19:18:07.483Z,53.30
2018-07-25T19:21:13.376Z,53.90
2018-07-25T19:24:18.835Z,54.00
2018-07-25T19:30:26.916Z,54.50
2018-07-25T19:33:31.360Z,54.50
2018-07-25T19:36:36.424Z,54.60
2018-07-25T19:39:40.818Z,54.50
2018-07-25T19:42:46.758Z,54.60
2018-07-25T19:45:51.169Z,54.70
2018-07-25T19:48:56.040Z,54.70
2018-07-25T19:52:00.802Z,54.80
2018-07-25T19:55:05.532Z,54.80
2018-07-25T19:58:09.780Z,54.40
2018-07-25T20:01:14.935Z,53.40
2018-07-25T20:04:19.648Z,53.50
2018-07-25T20:07:24.049Z,53.40
2018-07-25T20:10:28.424Z,53.50
2018-07-25T20:13:33.348Z,53.10
2018-07-25T20:16:37.923Z,53.20
2018-07-25T20:19:43.538Z,53.00
2018-07-25T20:22:48.620Z,52.60
2018-07-25T20:25:52.880Z,52.50
2018-07-25T20:28:57.314Z,50.90
2018-07-25T20:32:01.602Z,50.50
2018-07-25T20:35:07.082Z,53.90
2018-07-25T20:38:11.729Z,54.80
2018-07-25T20:41:16.323Z,55.20
2018-07-25T20:44:21.112Z,55.80
2018-07-25T20:47:26.557Z,56.10
2018-07-25T20:50:32.371Z,52.10
2018-07-25T20:53:37.423Z,52.00
2018-07-25T20:56:42.160Z,50.00
2018-07-25T20:59:46.634Z,49.70
2018-07-25T21:02:51.307Z,50.40
2018-07-25T21:05:55.648Z,51.50
2018-07-25T21:09:00.176Z,51.90
2018-07-25T21:12:04.492Z,52.40
2018-07-25T21:15:08.839Z,52.80
2018-07-25T21:18:13.048Z,53.90
2018-07-25T21:21:17.421Z,54.30
2018-07-25T21:24:21.802Z,54.50
2018-07-25T21:30:30.400Z,56.60
2018-07-25T21:33:35.202Z,58.10
2018-07-25T21:36:39.794Z,58.00
2018-07-25T21:39:43.968Z,58.80
2018-07-25T21:42:48.452Z,58.30
2018-07-25T21:45:53.031Z,58.00
2018-07-25T21:48:57.762Z,57.20
2018-07-25T21:52:02.361Z,57.20
2018-07-25T21:55:07.162Z,57.10
2018-07-25T21:58:11.699Z,57.10
2018-07-25T22:01:17.831Z,57.10
2018-07-25T22:04:22.052Z,57.00
2018-07-25T22:07:26.584Z,57.90
2018-07-25T22:10:30.915Z,57.60
2018-07-25T22:13:35.226Z,57.80
2018-07-25T22:16:39.658Z,58.40
2018-07-25T22:19:43.905Z,58.00
2018-07-25T22:22:48.214Z,58.00
2018-07-25T22:25:52.814Z,58.20
2018-07-25T22:28:57.177Z,58.40
2018-07-25T22:32:01.298Z,58.50
2018-07-25T22:35:05.683Z,58.40
2018-07-25T22:38:10.006Z,58.30
2018-07-25T22:41:14.300Z,58.70
2018-07-25T22:44:18.831Z,58.90
2018-07-25T22:47:23.356Z,58.90
2018-07-25T22:50:27.743Z,58.80
2018-07-25T22:53:32.182Z,59.40
2018-07-25T22:56:36.729Z,58.90
2018-07-25T22:59:41.001Z,58.90
2018-07-25T23:02:45.228Z,58.60
2018-07-25T23:05:49.827Z,59.40
2018-07-25T23:08:54.070Z,59.20
2018-07-25T23:11:58.379Z,59.40
2018-07-25T23:15:02.623Z,59.40
2018-07-25T23:18:06.902Z,59.10
2018-07-25T23:21:11.226Z,59.40
2018-07-25T23:24:15.546Z,59.70
2018-07-25T23:27:19.854Z,59.60
2018-07-25T23:30:24.394Z,59.40
2018-07-25T23:33:28.599Z,59.80
2018-07-25T23:36:32.953Z,60.60
2018-07-25T23:39:37.270Z,60.80
2018-07-25T23:42:41.766Z,60.80
2018-07-25T23:45:46.152Z,60.30
2018-07-25T23:48:50.393Z,60.30
2018-07-25T23:51:54.775Z,60.90
2018-07-25T23:54:58.957Z,61.30
2018-07-25T23:58:04.363Z,61.90
